sensor_id;sensor_type;location;lat;lon;timestamp;pressure;altitude;pressure_sealevel;temperature;humidity
62976;BME280;49071;0.000;0.000;2023-04-25T04:22:02;99933.38;;;18.28;46.31
62976;BME280;49071;0.000;0.000;2023-04-25T04:25:03;99936.50;;;18.34;46.29
62976;BME280;49071;0.000;0.000;2023-04-25T04:28:05;99935.47;;;18.37;46.65
62976;BME280;49071;0.000;0.000;2023-04-25T04:31:06;99931.81;;;18.39;46.18
62976;BME280;49071;0.000;0.000;2023-04-25T04:34:07;99931.72;;;18.41;46.47
62976;BME280;49071;0.000;0.000;2023-04-25T04:37:07;99943.06;;;18.41;46.62
62976;BME280;49071;0.000;0.000;2023-04-25T04:40:08;99937.81;;;18.41;46.36
62976;BME280;49071;0.000;0.000;2023-04-25T04:43:08;99938.66;;;18.42;46.27
62976;BME280;49071;0.000;0.000;2023-04-25T04:46:10;99944.75;;;18.42;46.11
62976;BME280;49071;0.000;0.000;2023-04-25T04:49:12;99943.91;;;18.42;46.06
62976;BME280;49071;0.000;0.000;2023-04-25T04:52:13;99952.72;;;18.41;46.03
62976;BME280;49071;0.000;0.000;2023-04-25T04:55:13;99946.63;;;18.40;46.22
62976;BME280;49071;0.000;0.000;2023-04-25T04:58:14;99951.88;;;18.40;45.94
62976;BME280;49071;0.000;0.000;2023-04-25T05:01:14;99945.88;;;18.38;46.22
62976;BME280;49071;0.000;0.000;2023-04-25T05:04:15;99942.41;;;18.38;46.27
62976;BME280;49071;0.000;0.000;2023-04-25T05:07:16;99941.56;;;18.37;46.08
62976;BME280;49071;0.000;0.000;2023-04-25T05:10:16;99945.97;;;18.37;46.43
62976;BME280;49071;0.000;0.000;2023-04-25T05:13:16;99939.97;;;18.35;46.15
62976;BME280;49071;0.000;0.000;2023-04-25T05:16:17;99954.03;;;18.34;46.31
62976;BME280;49071;0.000;0.000;2023-04-25T05:19:17;99945.31;;;18.33;46.10
62976;BME280;49071;0.000;0.000;2023-04-25T05:22:17;99946.22;;;18.32;46.35
62976;BME280;49071;0.000;0.000;2023-04-25T05:25:17;99953.28;;;18.32;46.24
62976;BME280;49071;0.000;0.000;2023-04-25T05:28:17;99949.63;;;18.34;46.22
62976;BME280;49071;0.000;0.000;2023-04-25T05:31:18;99944.84;;;18.41;46.26
62976;BME280;49071;0.000;0.000;2023-04-25T05:34:18;99941.69;;;18.50;45.82
62976;BME280;49071;0.000;0.000;2023-04-25T05:37:18;99939.41;;;18.58;45.76
62976;BME280;49071;0.000;0.000;2023-04-25T05:40:18;99944.78;;;18.71;45.66
62976;BME280;49071;0.000;0.000;2023-04-25T05:43:18;99939.84;;;18.81;45.28
62976;BME280;49071;0.000;0.000;2023-04-25T05:46:18;99951.91;;;18.98;45.09
62976;BME280;49071;0.000;0.000;2023-04-25T05:49:20;99954.53;;;19.12;45.19
62976;BME280;49071;0.000;0.000;2023-04-25T05:52:20;99953.56;;;19.27;44.95
62976;BME280;49071;0.000;0.000;2023-04-25T05:55:20;99956.53;;;19.35;44.79
62976;BME280;49071;0.000;0.000;2023-04-25T05:58:20;99961.59;;;19.39;44.97
62976;BME280;49071;0.000;0.000;2023-04-25T06:01:21;99957.81;;;19.43;44.88
62976;BME280;49071;0.000;0.000;2023-04-25T06:04:22;99961.41;;;19.42;44.94
62976;BME280;49071;0.000;0.000;2023-04-25T06:07:22;99960.56;;;19.41;44.79
62976;BME280;49071;0.000;0.000;2023-04-25T06:10:22;99961.59;;;19.39;44.70
62976;BME280;49071;0.000;0.000;2023-04-25T06:13:22;99960.13;;;19.34;44.93
62976;BME280;49071;0.000;0.000;2023-04-25T06:16:23;99961.91;;;19.34;44.94
62976;BME280;49071;0.000;0.000;2023-04-25T06:19:25;99960.41;;;19.30;44.78
62976;BME280;49071;0.000;0.000;2023-04-25T06:22:25;99970.91;;;19.30;44.84
62976;BME280;49071;0.000;0.000;2023-04-25T06:25:26;99974.69;;;19.26;44.84
62976;BME280;49071;0.000;0.000;2023-04-25T06:28:26;99974.78;;;19.24;44.90
62976;BME280;49071;0.000;0.000;2023-04-25T06:31:26;99964.47;;;19.21;44.76
62976;BME280;49071;0.000;0.000;2023-04-25T06:34:26;99964.66;;;19.18;44.97
62976;BME280;49071;0.000;0.000;2023-04-25T06:37:26;99963.06;;;19.16;45.07
62976;BME280;49071;0.000;0.000;2023-04-25T06:40:26;99967.59;;;19.14;45.28
62976;BME280;49071;0.000;0.000;2023-04-25T06:43:27;99962.59;;;19.09;45.50
62976;BME280;49071;0.000;0.000;2023-04-25T06:46:27;99967.13;;;19.07;45.40
62976;BME280;49071;0.000;0.000;2023-04-25T06:49:27;99973.41;;;19.04;45.46
62976;BME280;49071;0.000;0.000;2023-04-25T06:52:27;99966.56;;;19.02;45.30
62976;BME280;49071;0.000;0.000;2023-04-25T06:55:27;99970.22;;;18.99;45.60
62976;BME280;49071;0.000;0.000;2023-04-25T06:58:27;99972.09;;;18.97;45.30
62976;BME280;49071;0.000;0.000;2023-04-25T07:01:28;99977.44;;;18.96;45.20
62976;BME280;49071;0.000;0.000;2023-04-25T07:04:28;99965.13;;;18.96;45.58
62976;BME280;49071;0.000;0.000;2023-04-25T07:07:28;99973.91;;;18.97;45.44
62976;BME280;49071;0.000;0.000;2023-04-25T07:10:28;99966.94;;;18.96;45.48
62976;BME280;49071;0.000;0.000;2023-04-25T07:13:28;99962.69;;;18.93;45.22
62976;BME280;49071;0.000;0.000;2023-04-25T07:16:29;99974.16;;;18.92;45.66
62976;BME280;49071;0.000;0.000;2023-04-25T07:19:30;99969.94;;;18.90;45.45
62976;BME280;49071;0.000;0.000;2023-04-25T07:22:30;99980.63;;;18.86;45.41
62976;BME280;49071;0.000;0.000;2023-04-25T07:25:30;99975.59;;;18.83;45.57
62976;BME280;49071;0.000;0.000;2023-04-25T07:28:31;99981.88;;;18.81;45.69
62976;BME280;49071;0.000;0.000;2023-04-25T07:31:31;99975.00;;;18.78;45.93
62976;BME280;49071;0.000;0.000;2023-04-25T07:34:31;99978.66;;;18.76;45.72
62976;BME280;49071;0.000;0.000;2023-04-25T07:37:32;99979.63;;;18.75;45.58
62976;BME280;49071;0.000;0.000;2023-04-25T07:40:32;99987.50;;;18.75;45.69
62976;BME280;49071;0.000;0.000;2023-04-25T07:43:32;99990.88;;;18.77;45.85
62976;BME280;49071;0.000;0.000;2023-04-25T07:46:32;99990.97;;;18.75;45.86
62976;BME280;49071;0.000;0.000;2023-04-25T07:49:33;99995.38;;;18.75;45.84
62976;BME280;49071;0.000;0.000;2023-04-25T07:52:34;100000.44;;;18.78;45.80
62976;BME280;49071;0.000;0.000;2023-04-25T07:55:34;99996.97;;;18.77;45.77
62976;BME280;49071;0.000;0.000;2023-04-25T07:58:36;99997.16;;;18.74;45.97
62976;BME280;49071;0.000;0.000;2023-04-25T08:01:36;99997.31;;;18.71;45.81
62976;BME280;49071;0.000;0.000;2023-04-25T08:04:36;100001.97;;;18.66;45.85
62976;BME280;49071;0.000;0.000;2023-04-25T08:07:37;100009.13;;;18.64;46.23
62976;BME280;49071;0.000;0.000;2023-04-25T08:10:38;100007.22;;;18.66;45.91
62976;BME280;49071;0.000;0.000;2023-04-25T08:13:39;100011.31;;;18.72;45.88
62976;BME280;49071;0.000;0.000;2023-04-25T08:16:39;100011.78;;;18.78;45.57
62976;BME280;49071;0.000;0.000;2023-04-25T08:19:39;100005.03;;;18.88;45.32
62976;BME280;49071;0.000;0.000;2023-04-25T08:22:39;100007.84;;;19.00;45.08
62976;BME280;49071;0.000;0.000;2023-04-25T08:25:40;100005.59;;;19.08;45.23
62976;BME280;49071;0.000;0.000;2023-04-25T08:28:40;100011.13;;;19.18;44.73
62976;BME280;49071;0.000;0.000;2023-04-25T08:31:40;100018.25;;;19.30;44.72
62976;BME280;49071;0.000;0.000;2023-04-25T08:34:40;100017.97;;;19.34;44.74
62976;BME280;49071;0.000;0.000;2023-04-25T08:37:42;100021.06;;;19.41;44.66
62976;BME280;49071;0.000;0.000;2023-04-25T08:40:42;100027.03;;;19.43;44.39
62976;BME280;49071;0.000;0.000;2023-04-25T08:43:43;100032.22;;;19.45;44.43
62976;BME280;49071;0.000;0.000;2023-04-25T08:46:44;100032.97;;;19.47;44.40
62976;BME280;49071;0.000;0.000;2023-04-25T08:49:49;100033.91;;;19.46;44.72
62976;BME280;49071;0.000;0.000;2023-04-25T08:52:50;100041.91;;;19.44;44.57
62976;BME280;49071;0.000;0.000;2023-04-25T08:55:53;100037.75;;;19.40;44.70
62976;BME280;49071;0.000;0.000;2023-04-25T08:58:54;100048.47;;;19.37;44.88
62976;BME280;49071;0.000;0.000;2023-04-25T09:01:55;100050.44;;;19.33;44.66
62976;BME280;49071;0.000;0.000;2023-04-25T09:04:55;100046.31;;;19.29;44.79
62976;BME280;49071;0.000;0.000;2023-04-25T09:07:56;100054.41;;;19.26;44.65
62976;BME280;49071;0.000;0.000;2023-04-25T09:10:56;100058.09;;;19.24;44.60
62976;BME280;49071;0.000;0.000;2023-04-25T09:17:15;100061.75;;;19.21;44.57
62976;BME280;49071;0.000;0.000;2023-04-25T09:20:17;100066.25;;;19.19;44.85
62976;BME280;49071;0.000;0.000;2023-04-25T09:23:18;100069.16;;;19.15;44.78
62976;BME280;49071;0.000;0.000;2023-04-25T09:26:20;100068.59;;;19.09;44.84
62976;BME280;49071;0.000;0.000;2023-04-25T09:29:20;100073.28;;;19.04;44.71
62976;BME280;49071;0.000;0.000;2023-04-25T09:32:28;100078.81;;;19.00;44.68
62976;BME280;49071;0.000;0.000;2023-04-25T09:35:28;100079.03;;;18.97;44.91
62976;BME280;49071;0.000;0.000;2023-04-25T09:38:29;100087.09;;;18.94;44.77
62976;BME280;49071;0.000;0.000;2023-04-25T09:41:30;100095.88;;;18.93;45.08
62976;BME280;49071;0.000;0.000;2023-04-25T09:44:30;100103.75;;;18.93;44.80
62976;BME280;49071;0.000;0.000;2023-04-25T09:47:31;100102.09;;;18.92;44.96
62976;BME280;49071;0.000;0.000;2023-04-25T09:50:31;100106.50;;;18.91;45.25
62976;BME280;49071;0.000;0.000;2023-04-25T09:53:35;100105.06;;;18.85;45.22
62976;BME280;49071;0.000;0.000;2023-04-25T09:56:36;100107.63;;;18.87;44.95
62976;BME280;49071;0.000;0.000;2023-04-25T09:59:41;100107.63;;;18.87;45.17
62976;BME280;49071;0.000;0.000;2023-04-25T10:02:44;100119.06;;;18.86;45.13
62976;BME280;49071;0.000;0.000;2023-04-25T10:05:46;100121.03;;;18.82;45.02
62976;BME280;49071;0.000;0.000;2023-04-25T10:08:49;100122.97;;;18.79;45.19
62976;BME280;49071;0.000;0.000;2023-04-25T10:11:50;100124.00;;;18.76;45.24
62976;BME280;49071;0.000;0.000;2023-04-25T10:14:51;100128.41;;;18.76;45.37
62976;BME280;49071;0.000;0.000;2023-04-25T10:17:52;100130.19;;;18.75;45.50
62976;BME280;49071;0.000;0.000;2023-04-25T10:20:56;100130.03;;;18.78;45.41
62976;BME280;49071;0.000;0.000;2023-04-25T10:23:56;100135.22;;;18.80;45.57
62976;BME280;49071;0.000;0.000;2023-04-25T10:26:57;100129.84;;;18.81;45.39
62976;BME280;49071;0.000;0.000;2023-04-25T10:33:16;100132.47;;;18.81;45.59
62976;BME280;49071;0.000;0.000;2023-04-25T10:36:21;100133.50;;;18.79;45.66
62976;BME280;49071;0.000;0.000;2023-04-25T10:39:23;100135.47;;;18.75;45.54
62976;BME280;49071;0.000;0.000;2023-04-25T10:42:23;100129.47;;;18.73;45.40
62976;BME280;49071;0.000;0.000;2023-04-25T10:45:23;100129.53;;;18.72;45.61
62976;BME280;49071;0.000;0.000;2023-04-25T10:48:31;100132.16;;;18.72;45.59
62976;BME280;49071;0.000;0.000;2023-04-25T10:51:31;100131.28;;;18.71;45.49
62976;BME280;49071;0.000;0.000;2023-04-25T10:54:32;100137.50;;;18.70;45.62
62976;BME280;49071;0.000;0.000;2023-04-25T11:00:33;100125.44;;;18.66;45.71
62976;BME280;49071;0.000;0.000;2023-04-25T11:03:43;100129.13;;;18.63;45.99
62976;BME280;49071;0.000;0.000;2023-04-25T11:09:49;100126.66;;;18.60;45.88
62976;BME280;49071;0.000;0.000;2023-04-25T11:12:50;100135.38;;;18.61;45.72
62976;BME280;49071;0.000;0.000;2023-04-25T11:15:53;100144.78;;;18.65;45.61
62976;BME280;49071;0.000;0.000;2023-04-25T11:18:53;100142.75;;;18.70;45.41
62976;BME280;49071;0.000;0.000;2023-04-25T11:21:57;100145.78;;;18.78;45.53
62976;BME280;49071;0.000;0.000;2023-04-25T11:24:57;100152.19;;;18.88;45.28
62976;BME280;49071;0.000;0.000;2023-04-25T11:27:58;100142.81;;;18.99;45.00
62976;BME280;49071;0.000;0.000;2023-04-25T11:30:59;100151.59;;;19.14;44.67
62976;BME280;49071;0.000;0.000;2023-04-25T11:34:00;100157.59;;;19.30;44.49
62976;BME280;49071;0.000;0.000;2023-04-25T11:37:01;100156.28;;;19.37;44.36
62976;BME280;49071;0.000;0.000;2023-04-25T11:40:04;100162.78;;;19.46;44.25
62976;BME280;49071;0.000;0.000;2023-04-25T11:43:06;100157.34;;;19.49;43.98
62976;BME280;49071;0.000;0.000;2023-04-25T11:46:07;100164.38;;;19.48;44.11
62976;BME280;49071;0.000;0.000;2023-04-25T11:49:07;100169.72;;;19.47;44.21
62976;BME280;49071;0.000;0.000;2023-04-25T11:52:08;100165.41;;;19.46;44.23
62976;BME280;49071;0.000;0.000;2023-04-25T11:55:09;100172.53;;;19.44;44.11
62976;BME280;49071;0.000;0.000;2023-04-25T11:58:09;100173.41;;;19.44;44.16
62976;BME280;49071;0.000;0.000;2023-04-25T12:01:10;100178.00;;;19.41;44.35
62976;BME280;49071;0.000;0.000;2023-04-25T12:04:11;100176.41;;;19.38;44.54
62976;BME280;49071;0.000;0.000;2023-04-25T12:07:11;100179.13;;;19.37;44.30
62976;BME280;49071;0.000;0.000;2023-04-25T12:10:14;100181.00;;;19.34;44.25
62976;BME280;49071;0.000;0.000;2023-04-25T12:13:22;100188.97;;;19.33;44.65
62976;BME280;49071;0.000;0.000;2023-04-25T12:16:23;100189.09;;;19.31;45.05
62976;BME280;49071;0.000;0.000;2023-04-25T12:19:23;100174.31;;;19.29;45.03
62976;BME280;49071;0.000;0.000;2023-04-25T12:22:23;100181.38;;;19.28;45.13
62976;BME280;49071;0.000;0.000;2023-04-25T12:25:43;100189.44;;;19.25;45.00
62976;BME280;49071;0.000;0.000;2023-04-25T12:28:45;100189.56;;;19.24;45.01
62976;BME280;49071;0.000;0.000;2023-04-25T12:31:47;100184.47;;;19.21;44.57
62976;BME280;49071;0.000;0.000;2023-04-25T12:34:47;100188.13;;;19.18;44.59
62976;BME280;49071;0.000;0.000;2023-04-25T12:37:47;100191.69;;;19.17;45.03
62976;BME280;49071;0.000;0.000;2023-04-25T12:40:47;100193.44;;;19.17;45.02
62976;BME280;49071;0.000;0.000;2023-04-25T12:43:48;100189.25;;;19.14;44.73
62976;BME280;49071;0.000;0.000;2023-04-25T12:46:48;100185.00;;;19.11;44.75
62976;BME280;49071;0.000;0.000;2023-04-25T12:49:48;100195.88;;;19.05;44.81
62976;BME280;49071;0.000;0.000;2023-04-25T12:52:48;100196.16;;;19.01;44.93
62976;BME280;49071;0.000;0.000;2023-04-25T12:55:48;100203.38;;;18.97;45.23
62976;BME280;49071;0.000;0.000;2023-04-25T12:58:49;100201.84;;;18.93;45.14
62976;BME280;49071;0.000;0.000;2023-04-25T13:01:49;100204.69;;;18.90;45.16
62976;BME280;49071;0.000;0.000;2023-04-25T13:04:50;100202.13;;;18.88;45.25
62976;BME280;49071;0.000;0.000;2023-04-25T13:07:51;100206.59;;;18.86;45.05
62976;BME280;49071;0.000;0.000;2023-04-25T13:10:51;100210.19;;;18.85;45.19
62976;BME280;49071;0.000;0.000;2023-04-25T13:13:51;100224.34;;;18.83;45.56
62976;BME280;49071;0.000;0.000;2023-04-25T13:16:52;100222.75;;;18.80;45.37
62976;BME280;49071;0.000;0.000;2023-04-25T13:19:52;100232.50;;;18.78;45.49
62976;BME280;49071;0.000;0.000;2023-04-25T13:22:52;100237.91;;;18.75;45.43
62976;BME280;49071;0.000;0.000;2023-04-25T13:25:52;100239.81;;;18.73;45.56
62976;BME280;49071;0.000;0.000;2023-04-25T13:28:52;100245.97;;;18.72;45.69
62976;BME280;49071;0.000;0.000;2023-04-25T13:31:53;100253.91;;;18.71;45.50
62976;BME280;49071;0.000;0.000;2023-04-25T13:34:53;100258.41;;;18.69;45.58
62976;BME280;49071;0.000;0.000;2023-04-25T13:37:53;100252.41;;;18.67;45.65
62976;BME280;49071;0.000;0.000;2023-04-25T13:40:53;100254.25;;;18.64;45.79
62976;BME280;49071;0.000;0.000;2023-04-25T13:43:53;100255.28;;;18.62;45.89
62976;BME280;49071;0.000;0.000;2023-04-25T13:46:54;100264.94;;;18.61;45.77
62976;BME280;49071;0.000;0.000;2023-04-25T13:49:54;100251.03;;;18.59;45.83
62976;BME280;49071;0.000;0.000;2023-04-25T13:52:54;100257.16;;;18.60;45.92
62976;BME280;49071;0.000;0.000;2023-04-25T13:55:54;100260.69;;;18.59;45.56
62976;BME280;49071;0.000;0.000;2023-04-25T13:58:55;100254.75;;;18.55;45.48
62976;BME280;49071;0.000;0.000;2023-04-25T14:01:56;100257.41;;;18.55;45.37
62976;BME280;49071;0.000;0.000;2023-04-25T14:04:56;100260.03;;;18.55;45.34
62976;BME280;49071;0.000;0.000;2023-04-25T14:07:57;100263.59;;;18.54;45.61
62976;BME280;49071;0.000;0.000;2023-04-25T14:10:57;100259.19;;;18.55;45.55
62976;BME280;49071;0.000;0.000;2023-04-25T14:13:57;100271.97;;;18.61;45.50
62976;BME280;49071;0.000;0.000;2023-04-25T14:16:57;100272.47;;;18.68;45.51
62976;BME280;49071;0.000;0.000;2023-04-25T14:19:58;100268.50;;;18.76;45.18
62976;BME280;49071;0.000;0.000;2023-04-25T14:22:58;100276.72;;;18.86;45.00
62976;BME280;49071;0.000;0.000;2023-04-25T14:25:58;100280.50;;;18.96;44.93
62976;BME280;49071;0.000;0.000;2023-04-25T14:28:58;100284.06;;;19.11;44.90
62976;BME280;49071;0.000;0.000;2023-04-25T14:31:58;100285.88;;;19.25;44.42
62976;BME280;49071;0.000;0.000;2023-04-25T14:34:59;100291.63;;;19.31;44.40
62976;BME280;49071;0.000;0.000;2023-04-25T14:37:59;100287.03;;;19.35;44.31
62976;BME280;49071;0.000;0.000;2023-04-25T14:41:00;100293.75;;;19.41;44.29
62976;BME280;49071;0.000;0.000;2023-04-25T14:44:01;100294.59;;;19.41;44.33
62976;BME280;49071;0.000;0.000;2023-04-25T14:47:01;100292.69;;;19.43;44.32
62976;BME280;49071;0.000;0.000;2023-04-25T14:50:01;100295.41;;;19.42;44.35
62976;BME280;49071;0.000;0.000;2023-04-25T14:53:02;100292.03;;;19.40;44.47
62976;BME280;49071;0.000;0.000;2023-04-25T14:56:02;100295.66;;;19.37;44.61
62976;BME280;49071;0.000;0.000;2023-04-25T14:59:03;100300.19;;;19.35;44.28
62976;BME280;49071;0.000;0.000;2023-04-25T15:02:04;100301.13;;;19.34;44.42
62976;BME280;49071;0.000;0.000;2023-04-25T15:05:04;100308.25;;;19.32;44.34
62976;BME280;49071;0.000;0.000;2023-04-25T15:08:04;100304.00;;;19.29;44.50
62976;BME280;49071;0.000;0.000;2023-04-25T15:11:05;100316.44;;;19.27;44.39
62976;BME280;49071;0.000;0.000;2023-04-25T15:14:05;100306.94;;;19.25;44.34
62976;BME280;49071;0.000;0.000;2023-04-25T15:17:05;100310.56;;;19.22;44.76
62976;BME280;49071;0.000;0.000;2023-04-25T15:20:06;100314.22;;;19.20;44.72
62976;BME280;49071;0.000;0.000;2023-04-25T15:23:07;100320.59;;;19.16;44.73
62976;BME280;49071;0.000;0.000;2023-04-25T15:26:07;100326.03;;;19.13;44.71
62976;BME280;49071;0.000;0.000;2023-04-25T15:29:07;100327.97;;;19.09;44.70
62976;BME280;49071;0.000;0.000;2023-04-25T15:32:08;100324.69;;;19.05;44.88
62976;BME280;49071;0.000;0.000;2023-04-25T15:35:08;100323.06;;;19.03;44.70
62976;BME280;49071;0.000;0.000;2023-04-25T15:38:08;100328.44;;;19.01;44.93
62976;BME280;49071;0.000;0.000;2023-04-25T15:41:10;100333.75;;;19.00;44.98
62976;BME280;49071;0.000;0.000;2023-04-25T15:44:11;100326.06;;;18.97;45.12
62976;BME280;49071;0.000;0.000;2023-04-25T15:47:11;100333.06;;;18.96;45.00
62976;BME280;49071;0.000;0.000;2023-04-25T15:50:12;100329.72;;;18.94;45.08
62976;BME280;49071;0.000;0.000;2023-04-25T15:53:14;100323.69;;;18.92;45.09
62976;BME280;49071;0.000;0.000;2023-04-25T15:56:15;100332.41;;;18.93;45.11
62976;BME280;49071;0.000;0.000;2023-04-25T15:59:15;100327.31;;;18.90;45.08
62976;BME280;49071;0.000;0.000;2023-04-25T16:02:16;100334.47;;;18.87;44.99
62976;BME280;49071;0.000;0.000;2023-04-25T16:05:17;100337.25;;;18.84;45.12
62976;BME280;49071;0.000;0.000;2023-04-25T16:08:17;100333.00;;;18.82;45.06
62976;BME280;49071;0.000;0.000;2023-04-25T16:11:18;100336.66;;;18.79;45.32
62976;BME280;49071;0.000;0.000;2023-04-25T16:14:18;100343.78;;;18.77;45.34
62976;BME280;49071;0.000;0.000;2023-04-25T16:17:18;100342.16;;;18.75;45.36
62976;BME280;49071;0.000;0.000;2023-04-25T16:20:19;100343.31;;;18.69;45.31
62976;BME280;49071;0.000;0.000;2023-04-25T16:23:19;100343.41;;;18.68;45.31
62976;BME280;49071;0.000;0.000;2023-04-25T16:26:19;100345.25;;;18.65;45.32
62976;BME280;49071;0.000;0.000;2023-04-25T16:29:19;100342.56;;;18.67;45.54
62976;BME280;49071;0.000;0.000;2023-04-25T16:32:19;100346.97;;;18.67;45.44
62976;BME280;49071;0.000;0.000;2023-04-25T16:35:20;100344.50;;;18.63;45.64
62976;BME280;49071;0.000;0.000;2023-04-25T16:38:20;100337.47;;;18.64;45.61
62976;BME280;49071;0.000;0.000;2023-04-25T16:41:20;100334.91;;;18.62;45.87
62976;BME280;49071;0.000;0.000;2023-04-25T16:44:21;100345.53;;;18.61;45.52
62976;BME280;49071;0.000;0.000;2023-04-25T16:47:21;100342.91;;;18.61;45.93
62976;BME280;49071;0.000;0.000;2023-04-25T16:50:21;100341.22;;;18.60;45.76
62976;BME280;49071;0.000;0.000;2023-04-25T16:53:21;100343.84;;;18.60;46.11
62976;BME280;49071;0.000;0.000;2023-04-25T16:56:22;100340.34;;;18.59;45.79
62976;BME280;49071;0.000;0.000;2023-04-25T16:59:23;100341.22;;;18.60;46.10
62976;BME280;49071;0.000;0.000;2023-04-25T17:02:23;100350.00;;;18.59;46.22
62976;BME280;49071;0.000;0.000;2023-04-25T17:05:24;100356.28;;;18.56;46.01
62976;BME280;49071;0.000;0.000;2023-04-25T17:08:25;100353.66;;;18.56;46.21
62976;BME280;49071;0.000;0.000;2023-04-25T17:11:25;100359.81;;;18.55;46.45
62976;BME280;49071;0.000;0.000;2023-04-25T17:14:25;100357.31;;;18.54;46.55
62976;BME280;49071;0.000;0.000;2023-04-25T17:17:26;100357.31;;;18.54;46.65
62976;BME280;49071;0.000;0.000;2023-04-25T17:20:26;100364.34;;;18.53;46.55
62976;BME280;49071;0.000;0.000;2023-04-25T17:23:26;100366.19;;;18.51;46.42
62976;BME280;49071;0.000;0.000;2023-04-25T17:26:27;100369.66;;;18.52;46.82
62976;BME280;49071;0.000;0.000;2023-04-25T17:29:27;100369.59;;;18.53;46.75
62976;BME280;49071;0.000;0.000;2023-04-25T17:32:27;100369.50;;;18.55;46.63
62976;BME280;49071;0.000;0.000;2023-04-25T17:35:28;100374.84;;;18.53;46.72
62976;BME280;49071;0.000;0.000;2023-04-25T17:38:28;100367.72;;;18.55;46.62
62976;BME280;49071;0.000;0.000;2023-04-25T17:41:28;100364.34;;;18.53;46.90
62976;BME280;49071;0.000;0.000;2023-04-25T17:44:28;100374.69;;;18.56;46.71
62976;BME280;49071;0.000;0.000;2023-04-25T17:47:28;100380.00;;;18.55;47.09
62976;BME280;49071;0.000;0.000;2023-04-25T17:50:29;100375.84;;;18.51;47.18
62976;BME280;49071;0.000;0.000;2023-04-25T17:53:30;100385.56;;;18.49;47.00
62976;BME280;49071;0.000;0.000;2023-04-25T17:56:30;100387.34;;;18.48;47.17
62976;BME280;49071;0.000;0.000;2023-04-25T17:59:30;100382.03;;;18.50;47.09
62976;BME280;49071;0.000;0.000;2023-04-25T18:02:31;100389.03;;;18.49;47.29
62976;BME280;49071;0.000;0.000;2023-04-25T18:05:31;100396.00;;;18.50;47.27
62976;BME280;49071;0.000;0.000;2023-04-25T18:08:31;100399.53;;;18.49;47.36
62976;BME280;49071;0.000;0.000;2023-04-25T18:11:32;100391.75;;;18.48;47.27
62976;BME280;49071;0.000;0.000;2023-04-25T18:14:32;100397.13;;;18.46;47.25
62976;BME280;49071;0.000;0.000;2023-04-25T18:17:33;100405.84;;;18.47;47.08
62976;BME280;49071;0.000;0.000;2023-04-25T18:20:38;100404.13;;;18.46;47.06
62976;BME280;49071;0.000;0.000;2023-04-25T18:23:39;100406.75;;;18.46;47.23
62976;BME280;49071;0.000;0.000;2023-04-25T18:26:39;100413.88;;;18.44;47.15
62976;BME280;49071;0.000;0.000;2023-04-25T18:29:39;100413.94;;;18.42;47.46
62976;BME280;49071;0.000;0.000;2023-04-25T18:32:42;100419.28;;;18.40;47.24
62976;BME280;49071;0.000;0.000;2023-04-25T18:35:43;100418.44;;;18.40;47.37
62976;BME280;49071;0.000;0.000;2023-04-25T18:38:43;100427.22;;;18.39;47.39
62976;BME280;49071;0.000;0.000;2023-04-25T18:41:43;100426.38;;;18.38;47.60
62976;BME280;49071;0.000;0.000;2023-04-25T18:44:44;100441.22;;;18.39;47.63
62976;BME280;49071;0.000;0.000;2023-04-25T18:47:45;100441.03;;;18.42;47.60
62976;BME280;49071;0.000;0.000;2023-04-25T18:50:46;100441.91;;;18.43;47.43
62976;BME280;49071;0.000;0.000;2023-04-25T18:53:46;100448.84;;;18.44;47.56
62976;BME280;49071;0.000;0.000;2023-04-25T18:56:46;100449.63;;;18.46;47.20
62976;BME280;49071;0.000;0.000;2023-04-25T18:59:47;100459.28;;;18.46;47.41
62976;BME280;49071;0.000;0.000;2023-04-25T19:02:47;100454.16;;;18.42;47.73
62976;BME280;49071;0.000;0.000;2023-04-25T19:05:47;100456.78;;;18.42;47.90
62976;BME280;49071;0.000;0.000;2023-04-25T19:08:48;100465.56;;;18.43;47.66
62976;BME280;49071;0.000;0.000;2023-04-25T19:11:49;100462.16;;;18.41;47.61
62976;BME280;49071;0.000;0.000;2023-04-25T19:14:50;100464.94;;;18.38;47.63
62976;BME280;49071;0.000;0.000;2023-04-25T19:17:50;100466.72;;;18.37;47.89
62976;BME280;49071;0.000;0.000;2023-04-25T19:20:51;100466.72;;;18.37;47.92
62976;BME280;49071;0.000;0.000;2023-04-25T19:23:51;100473.66;;;18.38;47.81
62976;BME280;49071;0.000;0.000;2023-04-25T19:26:52;100469.25;;;18.39;48.08
62976;BME280;49071;0.000;0.000;2023-04-25T19:29:53;100478.75;;;18.41;47.83
62976;BME280;49071;0.000;0.000;2023-04-25T19:32:58;100478.91;;;18.38;47.61
62976;BME280;49071;0.000;0.000;2023-04-25T19:35:58;100477.22;;;18.37;47.79
62976;BME280;49071;0.000;0.000;2023-04-25T19:38:58;100478.91;;;18.38;47.70
62976;BME280;49071;0.000;0.000;2023-04-25T19:42:02;100473.66;;;18.38;48.12
62976;BME280;49071;0.000;0.000;2023-04-25T19:45:03;100478.84;;;18.40;47.98
62976;BME280;49071;0.000;0.000;2023-04-25T19:48:03;100483.25;;;18.39;48.48
62976;BME280;49071;0.000;0.000;2023-04-25T19:51:04;100487.56;;;18.40;48.17
62976;BME280;49071;0.000;0.000;2023-04-25T19:54:04;100486.78;;;18.38;48.29
62976;BME280;49071;0.000;0.000;2023-04-25T19:57:04;100486.78;;;18.38;48.35
62976;BME280;49071;0.000;0.000;2023-04-25T20:00:06;100486.88;;;18.37;48.18
